Time;durP1;ratioP1;P1;durP2;ratioP2;P2;SDS_P1;SDS_P2;PMS_P1;PMS_P2;Temp;Humidity;BMP_temperature;BMP_pressure;BME280_temperature;BME280_humidity;BME280_pressure;Samples;Min_cycle;Max_cycle;Signal;HPM_P1;HPM_P2
2023/08/19 00:00:43;;;;;;;5.35;3.65;;;;;;;;;;5063657;28;20194;-67
2023/08/19 00:03:10;;;;;;;5.57;4.28;;;;;;;;;;5064631;28;20198;-67
2023/08/19 00:05:37;;;;;;;6.55;3.35;;;;;;;;;;5062778;28;20225;-67
2023/08/19 00:08:04;;;;;;;4.07;3.72;;;;;;;;;;5062881;28;20202;-67
2023/08/19 00:10:30;;;;;;;3.90;3.50;;;;;;;;;;5062994;28;20210;-66
2023/08/19 00:12:57;;;;;;;6.90;3.70;;;;;;;;;;5061221;28;20210;-67
2023/08/19 00:15:23;;;;;;;6.68;4.38;;;;;;;;;;5063273;28;20218;-66
2023/08/19 00:17:50;;;;;;;4.15;3.50;;;;;;;;;;5062151;28;20753;-65
2023/08/19 00:20:18;;;;;;;4.30;3.75;;;;;;;;;;5062024;28;20206;-66
2023/08/19 00:22:44;;;;;;;5.38;3.25;;;;;;;;;;5062899;28;20222;-65
2023/08/19 00:25:10;;;;;;;8.57;3.90;;;;;;;;;;5063164;28;20806;-65
2023/08/19 00:27:37;;;;;;;3.58;3.28;;;;;;;;;;5063969;28;21010;-65
2023/08/19 00:30:04;;;;;;;4.00;3.05;;;;;;;;;;5063875;28;20295;-67
2023/08/19 00:32:31;;;;;;;5.47;4.07;;;;;;;;;;5064826;28;20218;-66
2023/08/19 00:34:57;;;;;;;7.00;3.78;;;;;;;;;;5063414;28;20226;-65
2023/08/19 00:37:25;;;;;;;6.40;3.30;;;;;;;;;;5063705;28;20198;-65
2023/08/19 00:39:52;;;;;;;6.38;2.78;;;;;;;;;;5064133;28;20643;-68
2023/08/19 00:42:18;;;;;;;8.45;3.63;;;;;;;;;;5063416;28;20238;-67
2023/08/19 00:44:44;;;;;;;5.03;3.10;;;;;;;;;;5064183;28;20198;-67
2023/08/19 00:47:11;;;;;;;4.15;3.75;;;;;;;;;;5062368;28;20283;-63
2023/08/19 00:49:38;;;;;;;3.95;3.63;;;;;;;;;;5062065;28;20207;-65
2023/08/19 00:52:04;;;;;;;4.32;3.05;;;;;;;;;;5063149;28;20672;-66
2023/08/19 00:54:32;;;;;;;5.72;3.70;;;;;;;;;;5062542;28;20227;-65
2023/08/19 00:56:59;;;;;;;3.60;3.20;;;;;;;;;;5063750;28;20230;-68
2023/08/19 00:59:26;;;;;;;6.95;3.38;;;;;;;;;;5063069;28;20289;-66
2023/08/19 01:01:52;;;;;;;7.70;3.30;;;;;;;;;;5063623;28;20202;-67
2023/08/19 01:04:19;;;;;;;4.68;3.10;;;;;;;;;;5063338;28;20202;-67
2023/08/19 01:06:48;;;;;;;6.20;3.65;;;;;;;;;;5062897;28;20559;-66
2023/08/19 01:09:23;;;;;;;4.70;4.30;;;;;;;;;;5064156;28;20674;-66
2023/08/19 01:11:58;;;;;;;4.25;3.30;;;;;;;;;;5063173;28;20457;-66
2023/08/19 01:14:34;;;;;;;4.35;3.00;;;;;;;;;;5063176;28;20234;-66
2023/08/19 01:17:03;;;;;;;5.40;3.35;;;;;;;;;;5063080;28;20633;-67
2023/08/19 01:19:30;;;;;;;8.02;3.67;;;;;;;;;;5064331;28;20287;-67
2023/08/19 01:21:59;;;;;;;4.53;3.70;;;;;;;;;;5063163;28;20206;-70
2023/08/19 01:24:26;;;;;;;6.93;3.65;;;;;;;;;;5063705;28;20254;-66
2023/08/19 01:26:54;;;;;;;6.38;3.60;;;;;;;;;;5064198;28;20195;-66
2023/08/19 01:29:21;;;;;;;4.40;3.88;;;;;;;;;;5064116;28;20230;-67
2023/08/19 01:31:47;;;;;;;6.85;4.00;;;;;;;;;;5064229;28;20202;-66
2023/08/19 01:34:14;;;;;;;5.95;3.85;;;;;;;;;;5063243;28;20335;-67
2023/08/19 01:36:42;;;;;;;4.03;3.17;;;;;;;;;;5064213;28;20206;-66
2023/08/19 01:39:09;;;;;;;6.70;3.60;;;;;;;;;;5063718;28;20668;-67
2023/08/19 01:41:37;;;;;;;3.88;3.58;;;;;;;;;;5063569;28;21564;-67
2023/08/19 01:44:06;;;;;;;4.22;3.78;;;;;;;;;;5063400;28;20226;-66
2023/08/19 01:46:33;;;;;;;8.90;3.95;;;;;;;;;;5062395;28;20190;-68
2023/08/19 01:48:59;;;;;;;5.57;4.05;;;;;;;;;;5063082;28;20230;-65
2023/08/19 01:51:28;;;;;;;6.38;3.33;;;;;;;;;;5062766;28;20234;-66
2023/08/19 01:53:55;;;;;;;3.42;3.15;;;;;;;;;;5062674;28;20590;-66
2023/08/19 01:56:21;;;;;;;4.05;3.75;;;;;;;;;;5062109;28;20243;-66
2023/08/19 01:58:48;;;;;;;10.55;4.50;;;;;;;;;;5063202;28;20276;-66
2023/08/19 02:01:16;;;;;;;8.57;3.67;;;;;;;;;;5062612;28;20202;-67
2023/08/19 02:03:42;;;;;;;4.15;3.85;;;;;;;;;;5062965;28;20202;-67
2023/08/19 02:06:08;;;;;;;4.38;3.97;;;;;;;;;;5064027;28;20199;-66
2023/08/19 02:08:35;;;;;;;4.38;3.97;;;;;;;;;;5062893;28;20984;-66
2023/08/19 02:11:02;;;;;;;6.88;3.92;;;;;;;;;;5062543;28;20234;-67
2023/08/19 02:13:28;;;;;;;6.68;3.80;;;;;;;;;;5062680;28;20233;-66
2023/08/19 02:15:55;;;;;;;4.00;3.70;;;;;;;;;;5063365;28;20221;-65
2023/08/19 02:18:23;;;;;;;4.63;4.05;;;;;;;;;;5062601;28;20283;-65
2023/08/19 02:20:49;;;;;;;6.93;4.60;;;;;;;;;;5063935;28;20202;-66
2023/08/19 02:23:16;;;;;;;4.45;4.05;;;;;;;;;;5063286;28;20210;-66
2023/08/19 02:25:42;;;;;;;3.90;3.60;;;;;;;;;;5065144;28;20211;-65
2023/08/19 02:28:09;;;;;;;6.05;4.20;;;;;;;;;;5066473;28;20202;-65
2023/08/19 02:30:35;;;;;;;4.95;3.60;;;;;;;;;;5067285;28;20290;-65
2023/08/19 02:33:04;;;;;;;6.18;4.03;;;;;;;;;;5066413;28;20674;-66
2023/08/19 02:35:32;;;;;;;4.32;3.92;;;;;;;;;;5066723;28;20674;-67
2023/08/19 02:37:59;;;;;;;4.10;3.80;;;;;;;;;;5066524;28;20296;-66
2023/08/19 02:40:25;;;;;;;4.25;3.95;;;;;;;;;;5066420;28;20199;-65
2023/08/19 02:42:51;;;;;;;4.80;3.83;;;;;;;;;;5066327;28;20272;-66
2023/08/19 02:45:18;;;;;;;4.93;3.95;;;;;;;;;;5065427;28;20692;-65
2023/08/19 02:47:44;;;;;;;4.47;4.07;;;;;;;;;;5066266;28;20202;-65
2023/08/19 02:50:11;;;;;;;5.40;4.50;;;;;;;;;;5073410;28;20202;-64
2023/08/19 02:52:39;;;;;;;4.70;4.22;;;;;;;;;;5069663;28;20222;-66
2023/08/19 02:55:06;;;;;;;4.97;4.47;;;;;;;;;;5065047;28;20233;-65
2023/08/19 02:57:32;;;;;;;5.32;4.78;;;;;;;;;;5067335;28;20222;-65
2023/08/19 02:59:59;;;;;;;4.65;4.28;;;;;;;;;;5071461;28;20238;-66
2023/08/19 03:02:26;;;;;;;4.93;4.40;;;;;;;;;;5065487;28;20286;-65
2023/08/19 03:04:52;;;;;;;4.53;4.22;;;;;;;;;;5066612;28;20255;-66
2023/08/19 03:07:19;;;;;;;6.70;4.35;;;;;;;;;;5065665;28;20206;-66
2023/08/19 03:09:47;;;;;;;5.95;4.28;;;;;;;;;;5068092;28;20218;-66
2023/08/19 03:12:13;;;;;;;7.45;4.00;;;;;;;;;;5066594;28;20210;-66
2023/08/19 03:14:40;;;;;;;4.95;4.30;;;;;;;;;;5066035;28;20230;-66
2023/08/19 03:17:06;;;;;;;5.18;3.70;;;;;;;;;;5065298;28;20202;-66
2023/08/19 03:19:33;;;;;;;4.60;4.28;;;;;;;;;;5066331;28;20199;-66
2023/08/19 03:21:59;;;;;;;5.60;4.20;;;;;;;;;;5065195;28;20217;-66
2023/08/19 03:24:27;;;;;;;6.82;4.18;;;;;;;;;;5066160;28;20198;-66
2023/08/19 03:26:54;;;;;;;5.18;4.40;;;;;;;;;;5065092;28;20212;-66
2023/08/19 03:29:21;;;;;;;5.80;4.70;;;;;;;;;;5065823;28;20213;-67
2023/08/19 03:31:47;;;;;;;4.30;3.85;;;;;;;;;;5064677;28;20294;-67
2023/08/19 03:34:14;;;;;;;6.63;4.57;;;;;;;;;;5066061;28;20236;-66
2023/08/19 03:36:40;;;;;;;4.28;3.97;;;;;;;;;;5064716;28;20234;-66
2023/08/19 03:39:07;;;;;;;4.43;4.03;;;;;;;;;;5065375;28;20198;-66
2023/08/19 03:41:33;;;;;;;6.25;5.68;;;;;;;;;;5065390;28;20230;-66
2023/08/19 03:44:01;;;;;;;4.68;4.28;;;;;;;;;;5066161;28;20206;-66
2023/08/19 03:46:27;;;;;;;5.88;4.00;;;;;;;;;;5065448;28;20195;-66
2023/08/19 03:48:54;;;;;;;4.18;3.88;;;;;;;;;;5066279;28;20211;-66
2023/08/19 03:51:20;;;;;;;4.57;4.18;;;;;;;;;;5063759;28;20285;-66
2023/08/19 03:53:47;;;;;;;4.70;4.30;;;;;;;;;;5066124;28;20222;-66
2023/08/19 03:56:13;;;;;;;7.68;4.35;;;;;;;;;;5064972;28;20287;-66
2023/08/19 03:58:40;;;;;;;7.82;4.55;;;;;;;;;;5065881;28;20215;-66
2023/08/19 04:01:08;;;;;;;4.90;4.05;;;;;;;;;;5065432;28;20684;-66
2023/08/19 04:03:34;;;;;;;6.90;3.92;;;;;;;;;;5066296;28;20199;-67
2023/08/19 04:06:01;;;;;;;5.00;3.92;;;;;;;;;;5065715;28;20210;-65
2023/08/19 04:08:28;;;;;;;6.15;4.18;;;;;;;;;;5062446;28;20761;-65
2023/08/19 04:10:55;;;;;;;5.57;4.45;;;;;;;;;;5065385;28;20211;-67
2023/08/19 04:13:22;;;;;;;4.80;4.30;;;;;;;;;;5065253;28;20199;-66
2023/08/19 04:15:48;;;;;;;5.93;4.25;;;;;;;;;;5051889;28;20219;-66
2023/08/19 04:18:16;;;;;;;4.53;4.22;;;;;;;;;;5050608;28;20230;-66
2023/08/19 04:20:42;;;;;;;4.78;4.05;;;;;;;;;;5053326;28;20239;-65
2023/08/19 04:23:09;;;;;;;4.97;4.47;;;;;;;;;;5051345;28;20261;-66
2023/08/19 04:25:35;;;;;;;5.68;4.38;;;;;;;;;;5054846;28;20624;-68
2023/08/19 04:28:02;;;;;;;4.75;4.35;;;;;;;;;;5052291;28;20304;-65
2023/08/19 04:30:29;;;;;;;8.38;4.25;;;;;;;;;;5058337;28;20300;-67
2023/08/19 04:32:58;;;;;;;6.95;4.68;;;;;;;;;;5062455;28;20234;-66
2023/08/19 04:35:27;;;;;;;4.43;4.07;;;;;;;;;;5062127;28;20222;-65
2023/08/19 04:37:53;;;;;;;5.22;4.32;;;;;;;;;;5056136;28;20203;-67
2023/08/19 04:40:20;;;;;;;5.85;4.45;;;;;;;;;;5052476;28;20202;-66
2023/08/19 04:42:47;;;;;;;4.72;4.32;;;;;;;;;;5049295;28;20226;-66
2023/08/19 04:45:14;;;;;;;5.70;4.07;;;;;;;;;;5048130;28;20261;-65
2023/08/19 04:47:40;;;;;;;5.75;4.30;;;;;;;;;;5053286;28;20267;-66
2023/08/19 04:50:08;;;;;;;4.57;4.10;;;;;;;;;;5050282;28;20221;-66
2023/08/19 04:52:37;;;;;;;5.82;3.70;;;;;;;;;;5050674;28;20228;-66
2023/08/19 04:55:04;;;;;;;13.95;4.68;;;;;;;;;;5050760;28;20668;-66
2023/08/19 04:57:30;;;;;;;8.77;5.75;;;;;;;;;;5051811;28;20199;-67
2023/08/19 04:59:57;;;;;;;5.50;4.90;;;;;;;;;;5049556;28;20258;-66
2023/08/19 05:02:23;;;;;;;4.43;4.03;;;;;;;;;;5049568;28;20229;-66
2023/08/19 05:04:50;;;;;;;11.57;4.18;;;;;;;;;;5056338;28;20222;-65
2023/08/19 05:07:16;;;;;;;7.35;4.20;;;;;;;;;;5064230;28;20257;-66
2023/08/19 05:09:44;;;;;;;11.27;4.00;;;;;;;;;;5059485;28;20201;-66
2023/08/19 05:12:10;;;;;;;8.93;5.07;;;;;;;;;;5065043;28;21603;-66
2023/08/19 05:14:37;;;;;;;6.28;4.75;;;;;;;;;;5062314;28;20292;-66
2023/08/19 05:17:03;;;;;;;7.93;4.13;;;;;;;;;;5064626;28;20292;-66
2023/08/19 05:19:31;;;;;;;5.32;3.67;;;;;;;;;;5064857;28;20244;-67
2023/08/19 05:21:58;;;;;;;4.53;3.95;;;;;;;;;;5064602;28;20214;-66
2023/08/19 05:24:24;;;;;;;7.85;4.38;;;;;;;;;;5063106;28;20198;-66
2023/08/19 05:26:52;;;;;;;5.07;4.55;;;;;;;;;;5056851;28;20218;-66
2023/08/19 05:29:18;;;;;;;4.63;4.00;;;;;;;;;;5050589;28;20206;-66
2023/08/19 05:31:45;;;;;;;4.88;4.55;;;;;;;;;;5053904;28;20206;-67
2023/08/19 05:34:11;;;;;;;5.57;4.57;;;;;;;;;;5062543;28;20283;-66
2023/08/19 05:36:38;;;;;;;6.30;4.70;;;;;;;;;;5064269;28;20218;-67
2023/08/19 05:39:05;;;;;;;4.78;4.38;;;;;;;;;;5063148;28;20293;-65
2023/08/19 05:41:31;;;;;;;5.10;4.70;;;;;;;;;;5064773;28;20280;-66
2023/08/19 05:43:59;;;;;;;7.10;4.47;;;;;;;;;;5064095;28;20214;-66
2023/08/19 05:46:25;;;;;;;12.10;4.88;;;;;;;;;;5052931;28;20651;-66
2023/08/19 05:48:53;;;;;;;7.25;4.13;;;;;;;;;;5047187;28;20203;-68
2023/08/19 05:51:19;;;;;;;6.95;4.45;;;;;;;;;;5048687;28;20203;-66
2023/08/19 05:53:46;;;;;;;5.22;4.20;;;;;;;;;;5046941;28;20227;-67
2023/08/19 05:56:12;;;;;;;4.00;3.72;;;;;;;;;;5048115;28;20227;-66
2023/08/19 05:58:39;;;;;;;6.95;3.45;;;;;;;;;;5051758;28;20226;-66
2023/08/19 06:01:07;;;;;;;11.25;4.03;;;;;;;;;;5056215;28;20199;-66
2023/08/19 06:03:34;;;;;;;5.85;4.30;;;;;;;;;;5066084;28;20206;-67
2023/08/19 06:06:03;;;;;;;4.00;3.65;;;;;;;;;;5068010;28;20252;-67
2023/08/19 06:08:30;;;;;;;5.10;4.55;;;;;;;;;;5067028;28;20229;-66
2023/08/19 06:11:02;;;;;;;4.53;3.67;;;;;;;;;;5062784;28;20200;-66
2023/08/19 06:13:28;;;;;;;4.57;3.38;;;;;;;;;;5052188;28;20207;-66
2023/08/19 06:15:55;;;;;;;4.65;3.50;;;;;;;;;;5054441;28;20288;-67
2023/08/19 06:18:22;;;;;;;8.23;4.25;;;;;;;;;;5051210;28;20692;-68
2023/08/19 06:20:50;;;;;;;7.10;3.70;;;;;;;;;;5049828;28;20289;-68
2023/08/19 06:23:16;;;;;;;5.47;2.97;;;;;;;;;;5055360;28;20217;-68
2023/08/19 06:25:43;;;;;;;6.15;3.50;;;;;;;;;;5053079;28;20726;-68
2023/08/19 06:28:09;;;;;;;3.42;3.20;;;;;;;;;;5051472;28;20238;-68
2023/08/19 06:30:36;;;;;;;4.80;3.20;;;;;;;;;;5053926;28;20207;-67
2023/08/19 06:33:03;;;;;;;3.88;2.95;;;;;;;;;;5052329;28;20215;-67
2023/08/19 06:35:31;;;;;;;4.25;3.95;;;;;;;;;;5063153;28;20259;-67
2023/08/19 06:38:00;;;;;;;4.47;3.33;;;;;;;;;;5053621;28;20257;-69
2023/08/19 06:40:27;;;;;;;5.75;3.58;;;;;;;;;;5053354;28;20207;-68
2023/08/19 06:42:54;;;;;;;5.40;3.33;;;;;;;;;;5059149;28;20238;-68
2023/08/19 06:45:21;;;;;;;3.55;3.35;;;;;;;;;;5067443;28;20203;-68
2023/08/19 06:47:48;;;;;;;5.47;3.65;;;;;;;;;;5066695;28;20222;-68
2023/08/19 06:50:15;;;;;;;6.15;3.20;;;;;;;;;;5066986;28;20648;-67
2023/08/19 06:52:43;;;;;;;4.80;3.40;;;;;;;;;;5066822;28;20291;-68
2023/08/19 06:55:10;;;;;;;8.43;3.47;;;;;;;;;;5067324;28;20198;-67
2023/08/19 06:57:38;;;;;;;9.40;2.83;;;;;;;;;;5067326;28;20222;-66
2023/08/19 07:00:08;;;;;;;4.72;3.30;;;;;;;;;;5066371;28;20198;-68
2023/08/19 07:02:36;;;;;;;6.07;3.28;;;;;;;;;;5065380;28;20195;-68
2023/08/19 07:05:03;;;;;;;5.50;3.53;;;;;;;;;;5065709;28;20202;-68
2023/08/19 07:07:30;;;;;;;6.03;2.90;;;;;;;;;;5066430;28;20226;-68
2023/08/19 07:09:58;;;;;;;8.13;3.13;;;;;;;;;;5056884;28;20199;-67
2023/08/19 07:12:25;;;;;;;3.60;3.22;;;;;;;;;;5050762;28;20199;-68
2023/08/19 07:14:52;;;;;;;3.60;3.30;;;;;;;;;;5050042;28;20227;-68
2023/08/19 07:17:22;;;;;;;6.95;3.40;;;;;;;;;;5052206;28;20262;-68
2023/08/19 07:19:49;;;;;;;3.10;2.80;;;;;;;;;;5050639;28;20582;-68
2023/08/19 07:22:17;;;;;;;3.05;2.85;;;;;;;;;;5051175;28;20231;-68
2023/08/19 07:24:44;;;;;;;3.22;2.40;;;;;;;;;;5050814;28;20683;-68
2023/08/19 07:27:13;;;;;;;2.95;2.50;;;;;;;;;;5055653;28;20198;-69
2023/08/19 07:29:39;;;;;;;4.30;2.70;;;;;;;;;;5051125;28;20202;-69
2023/08/19 07:32:07;;;;;;;2.60;2.47;;;;;;;;;;5051814;28;20329;-68
2023/08/19 07:34:33;;;;;;;8.48;2.65;;;;;;;;;;5049974;28;20203;-70
2023/08/19 07:37:00;;;;;;;3.03;2.70;;;;;;;;;;5051089;28;20276;-68
2023/08/19 07:39:26;;;;;;;4.57;2.63;;;;;;;;;;5054430;28;20219;-69
2023/08/19 07:41:53;;;;;;;2.38;2.28;;;;;;;;;;5058633;28;20996;-67
2023/08/19 07:44:21;;;;;;;6.63;2.85;;;;;;;;;;5063993;28;20211;-67
2023/08/19 07:46:47;;;;;;;3.55;2.65;;;;;;;;;;5065118;28;20274;-68
2023/08/19 07:49:14;;;;;;;2.85;2.65;;;;;;;;;;5054832;28;20271;-69
2023/08/19 07:51:40;;;;;;;2.70;2.42;;;;;;;;;;5051608;28;20673;-68
2023/08/19 07:54:07;;;;;;;2.58;2.40;;;;;;;;;;5049721;28;20235;-68
2023/08/19 07:56:33;;;;;;;2.63;2.20;;;;;;;;;;5048402;28;20231;-69
2023/08/19 07:58:59;;;;;;;7.45;2.38;;;;;;;;;;5052529;28;20248;-68
2023/08/19 08:01:27;;;;;;;3.03;2.42;;;;;;;;;;5048259;28;20260;-69
2023/08/19 08:03:54;;;;;;;7.22;2.70;;;;;;;;;;5053949;28;20945;-67
2023/08/19 08:06:20;;;;;;;4.32;2.65;;;;;;;;;;5056400;28;20663;-69
2023/08/19 08:08:47;;;;;;;5.18;2.60;;;;;;;;;;5063167;28;20221;-68
2023/08/19 08:11:14;;;;;;;2.75;2.42;;;;;;;;;;5064200;28;20202;-68
2023/08/19 08:13:40;;;;;;;5.57;2.15;;;;;;;;;;5066837;28;20274;-68
2023/08/19 08:16:06;;;;;;;4.53;2.20;;;;;;;;;;5066289;28;20232;-68
2023/08/19 08:18:34;;;;;;;2.33;2.10;;;;;;;;;;5062756;28;20202;-68
2023/08/19 08:21:01;;;;;;;3.08;2.75;;;;;;;;;;5055112;28;20198;-68
2023/08/19 08:23:27;;;;;;;2.20;2.10;;;;;;;;;;5054757;28;20649;-67
2023/08/19 08:25:54;;;;;;;2.72;2.50;;;;;;;;;;5056829;28;20684;-69
2023/08/19 08:28:21;;;;;;;5.65;2.70;;;;;;;;;;5058868;28;21643;-68
2023/08/19 08:30:47;;;;;;;6.90;2.88;;;;;;;;;;5062249;28;20199;-67
2023/08/19 08:33:14;;;;;;;6.15;2.35;;;;;;;;;;5062048;28;20198;-68
2023/08/19 08:35:42;;;;;;;2.92;2.60;;;;;;;;;;5064018;28;20777;-68
2023/08/19 08:38:08;;;;;;;7.15;3.33;;;;;;;;;;5064289;28;20223;-69
2023/08/19 08:40:35;;;;;;;2.83;2.63;;;;;;;;;;5064212;28;20211;-66
2023/08/19 08:43:03;;;;;;;5.47;2.45;;;;;;;;;;5060841;28;20287;-67
2023/08/19 08:45:31;;;;;;;3.03;2.20;;;;;;;;;;5063929;28;20218;-69
2023/08/19 08:47:58;;;;;;;6.57;3.15;;;;;;;;;;5064025;28;20195;-69
2023/08/19 08:50:25;;;;;;;3.88;2.85;;;;;;;;;;5066420;28;20199;-68
2023/08/19 08:52:54;;;;;;;2.75;2.60;;;;;;;;;;5066178;28;20222;-68
2023/08/19 08:55:21;;;;;;;11.70;3.28;;;;;;;;;;5065943;28;20230;-69
2023/08/19 08:57:47;;;;;;;5.70;3.15;;;;;;;;;;5065322;28;20323;-68
2023/08/19 09:00:14;;;;;;;3.90;2.85;;;;;;;;;;5066035;28;20194;-66
2023/08/19 09:02:41;;;;;;;6.15;3.17;;;;;;;;;;5069709;28;21180;-69
2023/08/19 09:05:08;;;;;;;2.80;2.45;;;;;;;;;;5065353;28;20570;-69
2023/08/19 09:07:38;;;;;;;8.10;2.55;;;;;;;;;;5066125;28;20233;-68
2023/08/19 09:10:07;;;;;;;3.05;2.70;;;;;;;;;;5064445;28;20229;-66
2023/08/19 09:12:35;;;;;;;4.30;2.72;;;;;;;;;;5064483;28;20659;-67
2023/08/19 09:15:03;;;;;;;6.32;2.40;;;;;;;;;;5064448;28;20199;-69
2023/08/19 09:17:30;;;;;;;2.47;2.28;;;;;;;;;;5064436;28;20226;-69
2023/08/19 09:19:57;;;;;;;3.45;2.50;;;;;;;;;;5064588;28;21343;-68
2023/08/19 09:22:24;;;;;;;4.40;2.45;;;;;;;;;;5064371;28;20206;-65
2023/08/19 09:24:52;;;;;;;3.35;2.90;;;;;;;;;;5066387;28;20206;-69
2023/08/19 09:27:27;;;;;;;3.92;2.40;;;;;;;;;;5063809;28;20214;-69
2023/08/19 09:29:54;;;;;;;4.28;2.60;;;;;;;;;;5064896;28;20205;-67
2023/08/19 09:32:27;;;;;;;4.80;2.45;;;;;;;;;;5064775;28;20676;-68
2023/08/19 09:35:00;;;;;;;5.53;4.97;;;;;;;;;;5063246;28;20202;-69
2023/08/19 09:37:27;;;;;;;2.50;2.30;;;;;;;;;;5068521;28;20218;-68
2023/08/19 09:39:53;;;;;;;3.50;2.05;;;;;;;;;;5068869;28;20253;-67
2023/08/19 09:42:21;;;;;;;4.50;2.10;;;;;;;;;;5069076;28;20306;-67
2023/08/19 09:44:49;;;;;;;4.38;2.22;;;;;;;;;;5067310;28;20237;-67
2023/08/19 09:47:15;;;;;;;3.53;2.15;;;;;;;;;;5066929;28;20210;-67
2023/08/19 09:49:42;;;;;;;2.47;2.28;;;;;;;;;;5067476;28;20255;-68
2023/08/19 09:52:16;;;;;;;5.00;2.60;;;;;;;;;;5067031;28;20218;-68
2023/08/19 09:54:42;;;;;;;2.70;1.98;;;;;;;;;;5067087;28;20630;-68
2023/08/19 09:57:09;;;;;;;4.13;2.05;;;;;;;;;;5066115;28;20249;-69
2023/08/19 09:59:36;;;;;;;2.60;2.40;;;;;;;;;;5065700;28;20669;-69
2023/08/19 10:02:04;;;;;;;4.03;2.45;;;;;;;;;;5066414;28;20235;-68
2023/08/19 10:04:30;;;;;;;2.67;2.50;;;;;;;;;;5066822;28;20202;-69
2023/08/19 10:06:58;;;;;;;3.47;2.03;;;;;;;;;;5065724;28;20199;-68
2023/08/19 10:09:25;;;;;;;2.30;1.85;;;;;;;;;;5066636;28;20684;-68
2023/08/19 10:11:53;;;;;;;5.38;2.58;;;;;;;;;;5067698;28;20293;-69
2023/08/19 10:14:22;;;;;;;2.33;2.22;;;;;;;;;;5067027;28;20759;-68
2023/08/19 10:16:50;;;;;;;8.88;2.72;;;;;;;;;;5067478;28;20727;-67
2023/08/19 10:19:20;;;;;;;3.97;2.10;;;;;;;;;;5067381;28;20741;-68
2023/08/19 10:21:47;;;;;;;2.25;2.00;;;;;;;;;;5068216;28;20248;-69
2023/08/19 10:24:14;;;;;;;3.72;2.50;;;;;;;;;;5067873;28;20689;-68
2023/08/19 10:26:41;;;;;;;4.07;2.55;;;;;;;;;;5067656;28;20241;-68
2023/08/19 10:29:08;;;;;;;3.10;1.92;;;;;;;;;;5064740;28;20242;-68
2023/08/19 10:31:35;;;;;;;1.98;1.88;;;;;;;;;;5057082;28;20252;-68
2023/08/19 10:34:10;;;;;;;2.90;2.05;;;;;;;;;;5068151;28;20199;-68
2023/08/19 10:36:38;;;;;;;6.78;2.28;;;;;;;;;;5067805;28;20301;-68
2023/08/19 10:39:07;;;;;;;5.75;2.45;;;;;;;;;;5068712;28;20202;-67
2023/08/19 10:41:35;;;;;;;2.30;2.10;;;;;;;;;;5068108;28;20283;-67
2023/08/19 10:44:03;;;;;;;2.20;1.77;;;;;;;29.65;nan;95270.63;5067944;28;20745;-68
2023/08/19 10:46:34;;;;;;;3.17;1.80;;;;;;;;;;5066917;28;20648;-67
2023/08/19 10:49:00;;;;;;;3.00;2.10;;;;;;;;;;5068332;28;20768;-68
2023/08/19 10:51:45;;;;;;;4.40;2.33;;;;;;;;;;5066975;28;20224;-67
2023/08/19 10:54:13;;;;;;;2.75;2.38;;;;;;;;;;5067578;28;20194;-67
2023/08/19 10:56:43;;;;;;;2.60;2.40;;;;;;;;;;5065871;28;20271;-67
2023/08/19 10:59:10;;;;;;;2.28;2.17;;;;;;;;;;5067396;28;20289;-68
2023/08/19 11:01:36;;;;;;;4.00;2.10;;;;;;;;;;5067830;28;20214;-67
2023/08/19 11:04:04;;;;;;;2.45;2.25;;;;;;;;;;5066255;28;20283;-67
2023/08/19 11:06:30;;;;;;;3.22;2.67;;;;;;;;;;5057719;28;20206;-66
2023/08/19 11:08:59;;;;;;;2.30;2.20;;;;;;;;;;5053860;28;20207;-67
2023/08/19 11:11:27;;;;;;;3.28;1.98;;;;;;;;;;5053423;28;20264;-68
2023/08/19 11:13:53;;;;;;;3.45;2.58;;;;;;;;;;5058077;28;20194;-68
2023/08/19 11:16:24;;;;;;;3.08;2.42;;;;;;;;;;5052161;28;20232;-68
2023/08/19 11:18:52;;;;;;;3.90;2.45;;;;;;;;;;5053495;28;20645;-68
2023/08/19 11:21:19;;;;;;;4.05;2.55;;;;;;;;;;5050266;28;20195;-68
2023/08/19 11:23:45;;;;;;;4.78;2.65;;;;;;;;;;5055261;28;20222;-68
2023/08/19 11:26:13;;;;;;;2.65;2.55;;;;;;;;;;5066911;28;20206;-68
2023/08/19 11:28:40;;;;;;;3.40;2.78;;;;;;;;;;5066175;28;20710;-68
2023/08/19 11:31:07;;;;;;;2.58;2.47;;;;;;;;;;5065960;28;20198;-68
2023/08/19 11:33:33;;;;;;;2.47;2.38;;;;;;;;;;5066614;28;20210;-68
2023/08/19 11:36:00;;;;;;;3.95;3.22;;;;;;;;;;5066797;28;20706;-68
2023/08/19 11:38:27;;;;;;;4.35;2.60;;;;;;;;;;5058699;28;20219;-73
2023/08/19 11:40:53;;;;;;;5.28;2.10;;;;;;;;;;5052635;28;20214;-68
2023/08/19 11:43:23;;;;;;;2.50;2.40;;;;;;;;;;5055252;28;20288;-69
2023/08/19 11:45:50;;;;;;;2.50;2.30;;;;;;;;;;5067148;28;20248;-69
2023/08/19 11:48:18;;;;;;;2.63;2.47;;;;;;;;;;5063121;28;20199;-69
2023/08/19 11:50:45;;;;;;;2.80;2.60;;;;;;;;;;5052337;28;20235;-68
2023/08/19 11:53:21;;;;;;;4.20;2.60;;;;;;;;;;5051006;28;20732;-69
2023/08/19 11:55:48;;;;;;;5.60;2.90;;;;;;;;;;5050265;28;20280;-68
2023/08/19 11:58:14;;;;;;;5.32;3.25;;;;;;;;;;5048313;28;20258;-69
2023/08/19 12:00:41;;;;;;;4.20;3.90;;;;;;;;;;5048514;28;20269;-68
2023/08/19 12:03:09;;;;;;;3.78;3.47;;;;;;;;;;5047984;28;20294;-68
2023/08/19 12:05:35;;;;;;;4.07;3.35;;;;;;;;;;5050824;28;20253;-68
2023/08/19 12:08:02;;;;;;;3.92;3.72;;;;;;;;;;5049190;28;20227;-68
2023/08/19 12:10:38;;;;;;;5.45;3.80;;;;;;;;;;5052278;28;20226;-68
2023/08/19 12:13:05;;;;;;;4.28;3.97;;;;;;;;;;5050137;28;20233;-68
2023/08/19 12:15:31;;;;;;;3.47;3.17;;;;;;;;;;5054489;28;20295;-68
2023/08/19 12:17:57;;;;;;;5.97;4.20;;;;;;;;;;5052481;28;20288;-68
2023/08/19 12:20:25;;;;;;;5.93;3.88;;;;;;;;;;5052583;28;20260;-69
2023/08/19 12:22:52;;;;;;;5.05;4.25;;;;;;;;;;5062273;28;20681;-70
2023/08/19 12:25:18;;;;;;;5.85;3.70;;;;;;;;;;5064748;28;20210;-67
2023/08/19 12:27:44;;;;;;;6.47;4.03;;;;;;;;;;5064450;28;20270;-68
2023/08/19 12:30:11;;;;;;;5.07;3.92;;;;;;;;;;5064401;28;20260;-67
2023/08/19 12:32:38;;;;;;;4.25;3.85;;;;;;;;;;5063678;28;20210;-70
2023/08/19 12:35:04;;;;;;;6.15;4.40;;;;;;;;;;5064569;28;20267;-67
2023/08/19 12:37:33;;;;;;;3.67;3.47;;;;;;;;;;5065263;28;20272;-67
2023/08/19 12:39:59;;;;;;;3.30;2.78;;;;;;;;;;5065773;28;20260;-68
2023/08/19 12:42:25;;;;;;;5.22;3.88;;;;;;;;;;5065074;28;20241;-68
2023/08/19 12:44:53;;;;;;;3.50;3.20;;;;;;;;;;5063219;28;20203;-68
2023/08/19 12:47:20;;;;;;;6.63;3.85;;;;;;;;;;5065346;28;20668;-67
2023/08/19 12:49:46;;;;;;;4.85;4.55;;;;;;;;;;5053476;28;20199;-67
2023/08/19 12:52:13;;;;;;;4.50;4.25;;;;;;;;;;5049561;28;20231;-68
2023/08/19 12:54:40;;;;;;;6.38;4.15;;;;;;;;;;5051167;28;20226;-68
2023/08/19 12:57:07;;;;;;;4.03;3.83;;;;;;;;;;5048213;28;20296;-68
2023/08/19 12:59:33;;;;;;;3.72;3.42;;;;;;;;;;5054999;28;20279;-68
2023/08/19 13:02:01;;;;;;;4.95;4.55;;;;;;;;;;5051501;28;20199;-69
2023/08/19 13:04:27;;;;;;;6.07;4.28;;;;;;;;;;5049758;28;20938;-68
2023/08/19 13:06:54;;;;;;;3.88;3.58;;;;;;;;;;5059353;28;20198;-68
2023/08/19 13:09:21;;;;;;;7.57;3.70;;;;;;;;;;5062327;28;20311;-68
2023/08/19 13:11:49;;;;;;;6.13;3.90;;;;;;;;;;5048422;28;20562;-67
2023/08/19 13:14:15;;;;;;;4.18;3.97;;;;;;;;;;5049102;28;20631;-68
2023/08/19 13:16:41;;;;;;;6.95;3.85;;;;;;;;;;5048064;28;20276;-67
2023/08/19 13:19:09;;;;;;;4.43;4.13;;;;;;;;;;5052137;28;20300;-68
2023/08/19 13:21:35;;;;;;;4.15;3.47;;;;;;;;;;5060827;28;20214;-68
2023/08/19 13:24:03;;;;;;;4.25;3.22;;;;;;;;;;5063215;28;20233;-69
2023/08/19 13:26:29;;;;;;;3.55;3.00;;;;;;;;;;5063212;28;20210;-67
2023/08/19 13:28:57;;;;;;;8.27;3.50;;;;;;;;;;5065369;28;20256;-68
2023/08/19 13:31:23;;;;;;;3.58;3.30;;;;;;;;;;5055939;28;20234;-68
2023/08/19 13:33:50;;;;;;;3.63;3.30;;;;;;;;;;5050723;28;20295;-68
2023/08/19 13:36:16;;;;;;;6.18;3.65;;;;;;;;;;5048591;28;20660;-67
2023/08/19 13:38:43;;;;;;;3.33;3.15;;;;;;;;;;5049471;28;20272;-68
2023/08/19 13:41:09;;;;;;;3.55;3.35;;;;;;;;;;5048893;28;20287;-67
2023/08/19 13:43:37;;;;;;;5.50;3.53;;;;;;;;;;5058156;28;20289;-67
2023/08/19 13:46:05;;;;;;;7.07;4.22;;;;;;;;;;5064165;28;20230;-68
2023/08/19 13:48:31;;;;;;;5.20;3.53;;;;;;;;;;5062567;28;20276;-67
2023/08/19 13:50:58;;;;;;;4.18;3.50;;;;;;;;;;5061174;28;20233;-67
2023/08/19 13:53:24;;;;;;;5.75;4.05;;;;;;;;;;5050659;28;20312;-69
2023/08/19 13:55:51;;;;;;;3.97;3.70;;;;;;;;;;5050225;28;20253;-68
2023/08/19 13:58:17;;;;;;;6.63;3.85;;;;;;;;;;5047162;28;20223;-68
2023/08/19 14:00:44;;;;;;;10.15;3.45;;;;;;;;;;5049837;28;20253;-68
2023/08/19 14:03:11;;;;;;;3.70;3.50;;;;;;;;;;5049403;28;20699;-68
2023/08/19 14:05:38;;;;;;;5.95;3.35;;;;;;;;;;5049708;28;21284;-67
2023/08/19 14:08:05;;;;;;;6.32;3.35;;;;;;;;;;5047929;28;20667;-69
2023/08/19 14:10:31;;;;;;;6.05;3.22;;;;;;;;;;5053247;28;20229;-67
2023/08/19 14:12:58;;;;;;;4.13;3.17;;;;;;;;;;5059884;28;20277;-69
2023/08/19 14:15:24;;;;;;;6.88;3.55;;;;;;;;;;5048704;28;20216;-69
2023/08/19 14:17:53;;;;;;;3.83;2.95;;;;;;;;;;5047716;28;20227;-67
2023/08/19 14:20:20;;;;;;;5.72;2.90;;;;;;;;;;5049766;28;20215;-69
2023/08/19 14:22:47;;;;;;;3.13;2.95;;;;;;;;;;5053125;28;20231;-68
2023/08/19 14:25:13;;;;;;;7.50;3.50;;;;;;;;;;5053602;28;20699;-68
2023/08/19 14:27:40;;;;;;;4.97;3.42;;;;;;;;;;5053548;28;20824;-67
2023/08/19 14:30:07;;;;;;;3.50;3.20;;;;;;;;;;5052991;28;20195;-67
2023/08/19 14:32:33;;;;;;;7.07;3.40;;;;;;;;;;5059994;28;20268;-67
2023/08/19 14:35:00;;;;;;;3.25;2.80;;;;;;;;;;5067638;28;20582;-68
2023/08/19 14:37:27;;;;;;;3.70;3.20;;;;;;;;;;5060425;28;20227;-68
2023/08/19 14:39:54;;;;;;;3.83;3.28;;;;;;;;;;5051991;28;20214;-68
2023/08/19 14:42:20;;;;;;;3.53;3.17;;;;;;;;;;5051609;28;20276;-69